Time;durP1;ratioP1;P1;durP2;ratioP2;P2;SDS_P1;SDS_P2;PMS_P1;PMS_P2;Temp;Humidity;BMP_temperature;BMP_pressure;BME280_temperature;BME280_humidity;BME280_pressure;Samples;Min_cycle;Max_cycle;Signal;HPM_P1;HPM_P2
2022/01/13 00:01:33;;;;;;;25.83;19.50;;;;;;;;;;5129620;27;24764;-58
2022/01/13 00:03:59;;;;;;;24.67;19.47;;;;;;;;;;5129575;27;24442;-58
2022/01/13 00:06:25;;;;;;;21.23;17.20;;;;;;;;;;5121759;27;24841;-59
2022/01/13 00:08:50;;;;;;;22.52;17.25;;;;;;;;;;5127321;27;24419;-59
2022/01/13 00:11:15;;;;;;;22.00;17.80;;;;;;;;;;5110408;27;24420;-58
2022/01/13 00:13:57;;;;;;;23.33;19.13;;;;;;;;;;5109109;28;24567;-58
2022/01/13 00:19:03;;;;;;;24.48;19.30;;;;;;;;;;5109178;28;24417;-59
2022/01/13 00:21:34;;;;;;;20.90;17.42;;;;;;;;;;5128305;27;24405;-59
2022/01/13 00:24:01;;;;;;;23.95;20.33;;;;;;;;;;5129348;27;24508;-59
2022/01/13 00:26:28;;;;;;;24.23;19.08;;;;;;;;;;5113355;27;24421;-59
2022/01/13 00:28:55;;;;;;;24.80;19.85;;;;;;;;;;5109257;28;24449;-58
2022/01/13 00:31:27;;;;;;;23.45;19.67;;;;;;;;;;5108957;28;24402;-58
2022/01/13 00:33:54;;;;;;;25.65;19.42;;;;;;;;;;5109251;28;24515;-58
2022/01/13 00:36:20;;;;;;;23.17;19.17;;;;;;;;;;5127490;27;24487;-58
2022/01/13 00:38:45;;;;;;;24.10;19.77;;;;;;;;;;5126239;27;24439;-60
2022/01/13 00:41:10;;;;;;;22.33;18.85;;;;;;;;;;5129119;27;25238;-58
2022/01/13 00:43:39;;;;;;;20.67;18.37;;;;;;;;;;5112393;27;24486;-59
2022/01/13 00:46:05;;;;;;;19.90;16.83;;;;;;;;;;5108583;28;24393;-58
2022/01/13 00:48:30;;;;;;;20.30;16.73;;;;;;;;;;5109586;27;24405;-58
2022/01/13 00:50:55;;;;;;;18.57;15.40;;;;;;;;;;5116404;27;24414;-59
2022/01/13 00:53:20;;;;;;;15.80;14.10;;;;;;;;;;5127217;27;24456;-59
2022/01/13 00:58:11;;;;;;;17.03;14.77;;;;;;;;;;5108329;28;24458;-58
2022/01/13 01:00:36;;;;;;;15.43;13.80;;;;;;;;;;5112578;27;24401;-58
2022/01/13 01:03:01;;;;;;;16.08;13.70;;;;;;;;;;5126266;27;24425;-58
2022/01/13 01:05:27;;;;;;;14.90;11.83;;;;;;;;;;5121459;27;25019;-59
2022/01/13 01:07:52;;;;;;;12.40;11.20;;;;;;;;;;5127978;27;24423;-58
2022/01/13 01:10:17;;;;;;;13.30;11.90;;;;;;;;;;5127966;27;24449;-58
2022/01/13 01:12:43;;;;;;;12.47;11.17;;;;;;;;;;5127813;27;24421;-58
2022/01/13 01:15:08;;;;;;;12.90;11.60;;;;;;;;;;5126500;27;24517;-58
2022/01/13 01:17:40;;;;;;;13.27;11.98;;;;;;;;;;5126813;27;24444;-59
2022/01/13 01:20:07;;;;;;;13.20;11.52;;;;;;;;;;5127668;27;24565;-59
2022/01/13 01:22:41;;;;;;;13.30;12.00;;;;;;;;;;5119511;27;24973;-59
2022/01/13 01:27:39;;;;;;;12.88;11.65;;;;;;;;;;5124165;27;24429;-58
2022/01/13 01:30:14;;;;;;;13.07;11.68;;;;;;;;;;5125589;27;24416;-58
2022/01/13 01:32:40;;;;;;;13.63;12.23;;;;;;;;;;5128276;27;24405;-58
2022/01/13 01:35:13;;;;;;;12.90;11.48;;;;;;;;;;5118761;27;24464;-58
2022/01/13 01:37:39;;;;;;;13.35;12.05;;;;;;;;;;5110114;27;24974;-58
2022/01/13 01:40:05;;;;;;;12.10;10.80;;;;;;;;;;5127744;27;24412;-58
2022/01/13 01:42:30;;;;;;;12.05;10.80;;;;;;;;;;5127956;27;24389;-59
2022/01/13 01:44:57;;;;;;;12.05;10.85;;;;;;;;;;5127848;27;24405;-58
2022/01/13 01:47:24;;;;;;;12.13;10.82;;;;;;;;;;5127266;27;24481;-58
2022/01/13 01:49:52;;;;;;;12.25;10.95;;;;;;;;;;5113572;27;24539;-58
2022/01/13 01:52:18;;;;;;;10.88;9.77;;;;;;;;;;5126236;27;24433;-58
2022/01/13 01:54:43;;;;;;;10.80;9.70;;;;;;;;;;5121911;27;24540;-59
2022/01/13 01:57:09;;;;;;;11.90;10.70;;;;;;;;;;5118377;27;24749;-58
2022/01/13 01:59:38;;;;;;;10.83;9.73;;;;;;;;;;5114778;27;24424;-58
2022/01/13 02:02:03;;;;;;;11.02;9.90;;;;;;;;;;5119327;27;24424;-58
2022/01/13 02:04:29;;;;;;;11.43;10.32;;;;;;;;;;5127319;27;24417;-59
2022/01/13 02:06:55;;;;;;;11.68;10.48;;;;;;;;;;5127991;27;24434;-58
2022/01/13 02:09:20;;;;;;;11.30;10.10;;;;;;;;;;5127833;27;24409;-58
2022/01/13 02:11:49;;;;;;;10.57;9.48;;;;;;;;;;5125943;27;24475;-58
2022/01/13 02:17:03;;;;;;;11.97;10.20;;;;;;;;;;5114769;27;24532;-59
2022/01/13 02:19:29;;;;;;;11.37;10.17;;;;;;;;;;5127134;28;24582;-58
2022/01/13 02:21:54;;;;;;;11.50;10.30;;;;;;;;;;5116468;28;24445;-58
2022/01/13 02:24:19;;;;;;;10.60;9.60;;;;;;;;;;5127066;28;24905;-58
2022/01/13 02:26:45;;;;;;;10.48;9.48;;;;;;;;;;5127288;28;24409;-58
2022/01/13 02:29:10;;;;;;;10.20;8.90;;;;;;;;;;5126989;28;24489;-58
2022/01/13 02:31:35;;;;;;;10.10;8.97;;;;;;;;;;5124624;28;24420;-58
2022/01/13 02:34:01;;;;;;;10.70;9.60;;;;;;;;;;5126534;28;24416;-58
2022/01/13 02:36:27;;;;;;;11.13;9.70;;;;;;;;;;5126659;28;24441;-58
2022/01/13 02:38:54;;;;;;;10.52;9.52;;;;;;;;;;5115426;28;24503;-58
2022/01/13 02:41:19;;;;;;;11.27;10.17;;;;;;;;;;5126839;28;24453;-58
2022/01/13 02:43:46;;;;;;;10.70;9.60;;;;;;;;;;5125149;28;24424;-58
2022/01/13 02:49:06;;;;;;;11.88;10.10;;;;;;;;;;5122110;28;24427;-58
2022/01/13 02:51:32;;;;;;;9.70;8.70;;;;;;;;;;5107511;28;25016;-57
2022/01/13 02:53:57;;;;;;;9.60;8.80;;;;;;;;;;5114424;27;24418;-57
2022/01/13 02:56:22;;;;;;;10.47;9.47;;;;;;;;;;5108089;28;24425;-57
2022/01/13 02:58:47;;;;;;;9.97;8.67;;;;;;;;;;5113695;27;24405;-58
2022/01/13 03:01:13;;;;;;;9.60;8.60;;;;;;;;;;5110287;28;25077;-58
2022/01/13 03:03:39;;;;;;;10.40;8.30;;;;;;;;;;5125911;27;25192;-58
2022/01/13 03:06:09;;;;;;;9.88;8.75;;;;;;;;;;5130914;27;24938;-58
2022/01/13 03:08:34;;;;;;;9.32;8.38;;;;;;;;;;5123586;27;24958;-59
2022/01/13 03:10:59;;;;;;;9.48;8.57;;;;;;;;;;5124089;27;24420;-58
2022/01/13 03:13:28;;;;;;;8.93;8.03;;;;;;;;;;5127199;27;24978;-59
2022/01/13 03:15:53;;;;;;;9.63;8.73;;;;;;;;;;5130668;27;24427;-59
2022/01/13 03:18:18;;;;;;;9.15;8.25;;;;;;;;;;5128952;27;24423;-58
2022/01/13 03:20:43;;;;;;;9.38;8.48;;;;;;;;;;5130033;27;24416;-58
2022/01/13 03:23:10;;;;;;;9.73;8.73;;;;;;;;;;5114635;27;24939;-58
2022/01/13 03:25:35;;;;;;;10.25;9.25;;;;;;;;;;5124159;27;24433;-58
2022/01/13 03:28:05;;;;;;;9.50;8.60;;;;;;;;;;5128252;27;24413;-57
2022/01/13 03:30:31;;;;;;;9.30;8.40;;;;;;;;;;5123758;27;24746;-58
2022/01/13 03:32:56;;;;;;;9.80;8.90;;;;;;;;;;5129739;27;24413;-58
2022/01/13 03:35:21;;;;;;;9.93;8.95;;;;;;;;;;5127293;27;24792;-57
2022/01/13 03:37:46;;;;;;;10.67;9.57;;;;;;;;;;5126898;27;24859;-58
2022/01/13 03:40:12;;;;;;;10.10;9.10;;;;;;;;;;5124409;27;24406;-58
2022/01/13 03:42:37;;;;;;;10.30;9.30;;;;;;;;;;5120632;27;24398;-57
2022/01/13 03:45:02;;;;;;;9.57;8.67;;;;;;;;;;5130099;27;24440;-58
2022/01/13 03:47:27;;;;;;;10.87;9.77;;;;;;;;;;5125940;27;24822;-58
2022/01/13 03:49:54;;;;;;;10.23;9.33;;;;;;;;;;5116390;27;24508;-58
2022/01/13 03:52:22;;;;;;;10.20;9.30;;;;;;;;;;5127831;27;24959;-58
2022/01/13 03:55:02;;;;;;;10.25;9.25;;;;;;;;;;5130166;27;24590;-57
2022/01/13 03:57:46;;;;;;;11.75;9.50;;;;;;;;;;5129561;27;24491;-57
2022/01/13 04:00:37;;;;;;;10.52;9.43;;;;;;;;;;5124543;27;24454;-57
2022/01/13 04:03:03;;;;;;;9.93;8.98;;;;;;;;;;5126880;27;24413;-58
2022/01/13 04:05:28;;;;;;;10.82;9.75;;;;;;;;;;5129735;27;24396;-57
2022/01/13 04:07:53;;;;;;;8.95;8.15;;;;;;;;;;5117742;27;24422;-57
2022/01/13 04:10:36;;;;;;;9.13;8.10;;;;;;;;;;5110027;27;24844;-57
2022/01/13 04:13:11;;;;;;;10.30;9.30;;;;;;;;;;5129667;27;24520;-58
2022/01/13 04:15:39;;;;;;;11.10;8.77;;;;;;;;;;5129133;27;24493;-57
2022/01/13 04:18:05;;;;;;;9.60;8.60;;;;;;;;;;5128617;27;24417;-58
2022/01/13 04:20:31;;;;;;;8.40;7.60;;;;;;;;;;5126066;27;24985;-58
2022/01/13 04:22:56;;;;;;;7.80;7.00;;;;;;;;;;5127466;27;24759;-59
2022/01/13 04:25:22;;;;;;;9.03;8.23;;;;;;;;;;5129342;27;24417;-58
2022/01/13 04:27:48;;;;;;;8.77;7.60;;;;;;;;;;5125713;27;24413;-58
2022/01/13 04:32:39;;;;;;;7.13;6.50;;;;;;;;;;5124116;27;24562;-58
2022/01/13 04:35:05;;;;;;;7.50;6.80;;;;;;;;;;5128602;27;24473;-59
2022/01/13 04:37:30;;;;;;;9.60;7.68;;;;;;;;;;5126236;27;24437;-58
2022/01/13 04:39:55;;;;;;;6.82;6.22;;;;;;;;;;5128841;27;24502;-58
2022/01/13 04:42:20;;;;;;;7.90;7.10;;;;;;;;;;5126901;27;24405;-59
2022/01/13 04:44:45;;;;;;;7.73;6.93;;;;;;;;;;5129311;27;24844;-58
2022/01/13 04:47:10;;;;;;;8.45;6.90;;;;;;;;;;5122457;27;24436;-59
2022/01/13 04:49:36;;;;;;;7.72;6.20;;;;;;;;;;5128650;27;24458;-58
2022/01/13 04:52:01;;;;;;;7.80;7.00;;;;;;;;;;5112935;27;24406;-58
2022/01/13 04:54:26;;;;;;;7.30;6.60;;;;;;;;;;5109004;27;24529;-58
2022/01/13 04:59:17;;;;;;;6.43;5.80;;;;;;;;;;5129088;27;24826;-59
2022/01/13 05:01:42;;;;;;;6.63;5.93;;;;;;;;;;5115014;27;24954;-59
2022/01/13 05:04:08;;;;;;;6.53;5.93;;;;;;;;;;5124009;27;24598;-59
2022/01/13 05:06:33;;;;;;;6.00;5.50;;;;;;;;;;5128536;27;24468;-59
2022/01/13 05:08:58;;;;;;;7.23;6.53;;;;;;;;;;5128009;27;24418;-59
2022/01/13 05:11:24;;;;;;;6.70;6.00;;;;;;;;;;5125415;27;24464;-59
2022/01/13 05:13:49;;;;;;;7.50;6.60;;;;;;;;;;5118911;27;24428;-59
2022/01/13 05:19:08;;;;;;;6.00;5.50;;;;;;;;;;5128539;27;24447;-59
2022/01/13 05:24:17;;;;;;;7.60;6.80;;;;;;;;;;5122444;27;25084;-59
2022/01/13 05:26:42;;;;;;;6.80;6.20;;;;;;;;;;5119897;27;24520;-59
2022/01/13 05:29:07;;;;;;;7.00;6.40;;;;;;;;;;5115313;27;25181;-58
2022/01/13 05:31:33;;;;;;;6.93;5.95;;;;;;;;;;5118586;27;24425;-59
2022/01/13 05:33:58;;;;;;;6.47;5.88;;;;;;;;;;5121912;27;24564;-59
2022/01/13 05:36:23;;;;;;;7.15;6.47;;;;;;;;;;5116493;27;24998;-60
2022/01/13 05:38:48;;;;;;;7.60;6.90;;;;;;;;;;5122489;27;24425;-59
2022/01/13 05:41:13;;;;;;;6.70;6.00;;;;;;;;;;5117233;27;24433;-59
2022/01/13 05:43:39;;;;;;;6.83;6.23;;;;;;;;;;5115157;27;24504;-59
2022/01/13 05:46:04;;;;;;;7.70;6.60;;;;;;;;;;5119026;27;24456;-59
2022/01/13 05:48:31;;;;;;;6.00;5.50;;;;;;;;;;5122290;27;24992;-59
2022/01/13 05:50:56;;;;;;;7.18;6.47;;;;;;;;;;5123769;27;25060;-59
2022/01/13 05:53:21;;;;;;;6.50;5.90;;;;;;;;;;5123205;27;24413;-59
2022/01/13 05:55:46;;;;;;;8.27;7.20;;;;;;;;;;5117702;27;24493;-59
2022/01/13 05:58:11;;;;;;;7.70;7.00;;;;;;;;;;5113522;27;24981;-60
2022/01/13 06:00:37;;;;;;;6.97;6.10;;;;;;;;;;5114996;27;25058;-60
2022/01/13 06:03:04;;;;;;;6.40;5.80;;;;;;;;;;5118672;27;24406;-59
2022/01/13 06:05:30;;;;;;;7.65;6.53;;;;;;;;;;5112474;27;24789;-58
2022/01/13 06:07:55;;;;;;;6.53;5.93;;;;;;;;;;5106918;27;24464;-59
2022/01/13 06:10:21;;;;;;;7.10;6.00;;;;;;;;;;5111187;27;24420;-59
2022/01/13 06:12:47;;;;;;;7.10;6.35;;;;;;;;;;5120097;27;24934;-59
2022/01/13 06:15:13;;;;;;;8.15;6.80;;;;;;;;;;5114998;27;24549;-60
2022/01/13 06:17:39;;;;;;;7.53;6.70;;;;;;;;;;5115325;27;24875;-59
2022/01/13 06:20:05;;;;;;;6.60;6.00;;;;;;;;;;5122820;27;24593;-59
2022/01/13 06:22:31;;;;;;;7.28;6.63;;;;;;;;;;5110122;28;24563;-59
2022/01/13 06:24:56;;;;;;;7.77;7.07;;;;;;;;;;5107740;28;24948;-59
2022/01/13 06:27:22;;;;;;;8.27;7.38;;;;;;;;;;5109466;28;24410;-58
2022/01/13 06:29:48;;;;;;;7.93;6.50;;;;;;;;;;5111003;28;24866;-59
2022/01/13 06:32:13;;;;;;;8.17;6.40;;;;;;;;;;5110600;28;24984;-59
2022/01/13 06:34:38;;;;;;;7.50;6.80;;;;;;;;;;5117002;27;24988;-59
2022/01/13 06:37:03;;;;;;;8.65;7.75;;;;;;;;;;5129597;27;24818;-59
2022/01/13 06:39:28;;;;;;;9.43;6.38;;;;;;;;;;5130966;27;24394;-57
2022/01/13 06:41:54;;;;;;;8.75;7.85;;;;;;;;;;5131408;27;24454;-58
2022/01/13 06:44:19;;;;;;;7.75;6.50;;;;;;;;;;5130776;27;24961;-58
2022/01/13 06:46:44;;;;;;;7.60;6.80;;;;;;;;;;5130320;27;24408;-58
2022/01/13 06:49:10;;;;;;;8.13;7.25;;;;;;;;;;5110599;28;24529;-58
2022/01/13 06:51:35;;;;;;;7.87;6.23;;;;;;;;;;5120670;27;24421;-59
2022/01/13 06:54:00;;;;;;;7.38;6.65;;;;;;;;;;5119822;27;24496;-58
2022/01/13 06:56:26;;;;;;;7.80;7.00;;;;;;;;;;5123780;27;24444;-58
2022/01/13 06:58:52;;;;;;;9.45;6.80;;;;;;;;;;5123442;27;24609;-58
2022/01/13 07:01:18;;;;;;;8.97;6.87;;;;;;;;;;5117939;27;24996;-59
2022/01/13 07:03:43;;;;;;;8.57;7.68;;;;;;;;;;5111513;27;24428;-58
2022/01/13 07:06:08;;;;;;;9.07;7.13;;;;;;;;;;5119652;27;24826;-59
2022/01/13 07:08:33;;;;;;;7.72;6.97;;;;;;;;;;5116749;27;24509;-60
2022/01/13 07:11:02;;;;;;;8.27;6.83;;;;;;;;;;5117581;27;24433;-59
2022/01/13 07:13:27;;;;;;;7.47;6.78;;;;;;;;;;5125660;27;24550;-59
2022/01/13 07:15:53;;;;;;;7.80;6.75;;;;;;;;;;5124494;27;24516;-59
2022/01/13 07:18:18;;;;;;;8.10;7.20;;;;;;;;;;5124027;27;24405;-59
2022/01/13 07:20:45;;;;;;;8.57;7.10;;;;;;;;;;5127091;27;24512;-59
2022/01/13 07:23:10;;;;;;;8.23;7.13;;;;;;;;;;5127701;27;25012;-58
2022/01/13 07:25:35;;;;;;;9.23;7.40;;;;;;;;;;5124109;27;24413;-58
2022/01/13 07:28:00;;;;;;;7.10;6.40;;;;;;;;;;5125901;27;24474;-59
2022/01/13 07:30:25;;;;;;;9.50;8.03;;;;;;;;;;5124514;27;24427;-58
2022/01/13 07:32:51;;;;;;;7.07;6.27;;;;;;;;;;5122202;27;24428;-59
2022/01/13 07:35:16;;;;;;;7.10;6.40;;;;;;;;;;5123452;27;24428;-59
2022/01/13 07:37:42;;;;;;;9.10;6.93;;;;;;;;;;5127000;27;24524;-59
2022/01/13 07:40:13;;;;;;;8.13;6.82;;;;;;;;;;5126432;27;24424;-59
2022/01/13 07:42:41;;;;;;;9.57;6.68;;;;;;;;;;5121619;27;24420;-58
2022/01/13 07:45:07;;;;;;;11.43;7.35;;;;;;;;;;5117607;27;24413;-58
2022/01/13 07:47:32;;;;;;;8.27;7.03;;;;;;;;;;5125509;27;24977;-58
2022/01/13 07:49:57;;;;;;;8.37;6.67;;;;;;;;;;5126946;27;24487;-58
2022/01/13 07:52:25;;;;;;;8.40;7.33;;;;;;;;;;5126156;27;24812;-58
2022/01/13 07:54:51;;;;;;;9.38;7.53;;;;;;;;;;5121632;27;24413;-57
2022/01/13 07:57:16;;;;;;;7.55;6.45;;;;;;;;;;5119452;27;24963;-58
2022/01/13 07:59:41;;;;;;;7.85;6.75;;;;;;;;;;5124253;27;24417;-58
2022/01/13 08:02:07;;;;;;;8.00;6.75;;;;;;;;;;5119110;27;24398;-59
2022/01/13 08:04:32;;;;;;;9.52;7.30;;;;;;;;;;5109219;28;24962;-58
2022/01/13 08:06:59;;;;;;;8.60;6.83;;;;;;;;;;5112649;27;25159;-58
2022/01/13 08:09:25;;;;;;;9.50;7.05;;;;;;;;;;5119185;27;24409;-58
2022/01/13 08:11:50;;;;;;;9.38;7.40;;;;;;;;;;5129189;27;24381;-62
2022/01/13 08:14:15;;;;;;;10.77;7.83;;;;;;;;;;5129590;27;24480;-58
2022/01/13 08:16:43;;;;;;;8.60;7.17;;;;;;;;;;5128956;27;25300;-58
2022/01/13 08:21:52;;;;;;;11.82;7.43;;;;;;;;;;5128969;27;24381;-58
2022/01/13 08:24:17;;;;;;;8.70;7.38;;;;;;;;;;5129282;27;24716;-59
2022/01/13 08:26:43;;;;;;;10.47;7.43;;;;;;;;;;5129145;27;24397;-59
2022/01/13 08:29:08;;;;;;;7.43;6.20;;;;;;;;;;5127151;27;24788;-59
2022/01/13 08:31:33;;;;;;;13.00;7.90;;;;;;;;;;5128110;27;24763;-58
2022/01/13 08:33:58;;;;;;;9.80;7.20;;;;;;;;;;5128778;27;24919;-58
2022/01/13 08:36:23;;;;;;;8.57;6.20;;;;;;;;;;5128903;27;24437;-58
2022/01/13 08:38:49;;;;;;;7.07;5.77;;;;;;;;;;5126635;27;24401;-59
2022/01/13 08:41:15;;;;;;;10.43;6.68;;;;;;;;;;5128227;27;24406;-59
2022/01/13 08:43:40;;;;;;;7.23;6.20;;;;;;;;;;5127645;27;24445;-59
2022/01/13 08:46:05;;;;;;;7.20;5.70;;;;;;;;;;5128918;27;24822;-59
2022/01/13 08:48:31;;;;;;;10.73;6.80;;;;;;;;;;5128017;27;25015;-58
2022/01/13 08:50:56;;;;;;;9.27;6.00;;;;;;;;;;5127876;27;24512;-59
2022/01/13 08:53:22;;;;;;;8.67;6.50;;;;;;;;;;5128428;27;24610;-58
2022/01/13 08:55:48;;;;;;;8.47;6.30;;;;;;;;;;5124666;27;24732;-58
2022/01/13 08:58:13;;;;;;;11.32;7.32;;;;;;;;;;5128189;27;24377;-58
2022/01/13 09:00:38;;;;;;;11.27;6.68;;;;;;;;;;5128407;27;24925;-59
2022/01/13 09:03:07;;;;;;;10.10;6.90;;;;;;;;;;5128133;27;24842;-60
2022/01/13 09:05:32;;;;;;;8.25;6.53;;;;;;;;;;5126101;27;24424;-59
2022/01/13 09:07:57;;;;;;;8.15;6.95;;;;;;;;;;5127769;27;24419;-60
2022/01/13 09:10:22;;;;;;;13.40;7.00;;;;;;;;;;5128267;27;24412;-59
2022/01/13 09:12:48;;;;;;;7.38;6.20;;;;;;;;;;5127720;27;24828;-59
2022/01/13 09:15:18;;;;;;;7.27;5.50;;;;;;;;;;5128297;27;24401;-59
2022/01/13 09:17:44;;;;;;;7.22;6.00;;;;;;;;;;5111288;27;24409;-59
2022/01/13 09:20:10;;;;;;;7.90;6.10;;;;;;;;;;5107566;28;24378;-60
2022/01/13 09:22:35;;;;;;;9.95;5.85;;;;;;;;;;5107075;28;24401;-59
2022/01/13 09:25:01;;;;;;;7.28;5.57;;;;;;;;;;5117116;27;24803;-59
2022/01/13 09:27:26;;;;;;;7.83;6.17;;;;;;;;;;5127454;27;24993;-60
2022/01/13 09:29:51;;;;;;;8.57;6.17;;;;;;;;;;5127295;27;24509;-59
2022/01/13 09:32:16;;;;;;;7.20;5.28;;;;;;;;;;5127922;27;24481;-59
2022/01/13 09:34:43;;;;;;;6.80;5.47;;;;;;;;;;5127626;27;24910;-59
2022/01/13 09:37:08;;;;;;;6.97;5.40;;;;;;;;;;5126364;27;24500;-59
2022/01/13 09:39:34;;;;;;;6.83;5.20;;;;;;;;;;5127414;27;24397;-58
2022/01/13 09:42:00;;;;;;;7.05;5.40;;;;;;;;;;5127452;27;24401;-58
2022/01/13 09:44:26;;;;;;;5.90;5.30;;;;;;;;;;5127595;27;24496;-60
2022/01/13 09:46:52;;;;;;;5.35;4.70;;;;;;;;;;5113998;27;24535;-59
2022/01/13 09:49:17;;;;;;;5.90;4.63;;;;;;;;;;5120111;27;24413;-58
2022/01/13 09:51:45;;;;;;;6.57;4.93;;;;;;;;;;5127195;27;24450;-58
2022/01/13 09:54:10;;;;;;;6.90;5.80;;;;;;;;;;5127158;27;24385;-58
2022/01/13 09:56:35;;;;;;;6.43;4.97;;;;;;;;;;5126987;27;24585;-58
2022/01/13 09:59:00;;;;;;;7.05;5.78;;;;;;;;;;5125762;27;24534;-58
2022/01/13 10:01:25;;;;;;;6.65;5.28;;;;;;;;;;5127075;27;24957;-59
2022/01/13 10:03:51;;;;;;;5.05;4.32;;;;;;;;;;5126844;27;24419;-59
2022/01/13 10:06:20;;;;;;;9.90;5.20;;;;;;;;;;5126068;27;24553;-59
2022/01/13 10:08:46;;;;;;;8.82;5.60;;;;;;;;;;5126337;27;24948;-59
2022/01/13 10:11:28;;;;;;;5.65;5.00;;;;;;;;;;5106093;28;25145;-59
2022/01/13 10:14:10;;;;;;;6.65;5.15;;;;;;;;;;5106388;28;24386;-59
2022/01/13 10:16:41;;;;;;;7.15;5.40;;;;;;;;;;5121283;27;24502;-59
2022/01/13 10:19:06;;;;;;;5.90;4.60;;;;;;;;;;5127265;27;24412;-58
2022/01/13 10:21:32;;;;;;;7.80;5.15;;;;;;;;;;5125259;27;24417;-59
2022/01/13 10:24:09;;;;;;;6.00;4.75;;;;;;;;;;5127226;28;24898;-59
2022/01/13 10:26:35;;;;;;;7.72;5.05;;;;;;;;;;5127328;28;24914;-59
2022/01/13 10:29:00;;;;;;;8.27;5.50;;;;;;;;;;5127336;28;24480;-60
2022/01/13 10:31:45;;;;;;;6.30;4.47;;;;;;;;;;5126566;28;24413;-59
2022/01/13 10:34:21;;;;;;;6.10;4.90;;;;;;;;;;5126919;28;24739;-59
2022/01/13 10:37:00;;;;;;;4.90;4.20;;;;;;;;;;5126643;28;24441;-59
2022/01/13 10:39:44;;;;;;;5.40;3.88;;;;;;;;;;5126508;28;24466;-59
2022/01/13 10:42:31;;;;;;;6.88;4.68;;;;;;;;;;5124996;28;24420;-59
2022/01/13 10:44:57;;;;;;;4.90;3.87;;;;;;;;;;5126919;28;24476;-59
2022/01/13 10:47:23;;;;;;;4.72;4.00;;;;;;;;;;5126697;28;24508;-59
2022/01/13 10:49:50;;;;;;;4.40;3.40;;;;;;;;;;5126891;28;24534;-59
2022/01/13 10:52:16;;;;;;;5.25;4.00;;;;;;;;;;5122952;28;24409;-59
2022/01/13 10:54:42;;;;;;;6.10;4.50;;;;;;;;;;5112299;28;24428;-59
2022/01/13 10:57:16;;;;;;;5.53;4.43;;;;;;;;;;5106251;28;24933;-59
2022/01/13 10:59:42;;;;;;;7.63;4.70;;;;;;;;;;5106280;28;24427;-59
2022/01/13 11:02:08;;;;;;;4.82;3.90;;;;;;;;;;5105919;28;24406;-59
2022/01/13 11:04:34;;;;;;;4.43;3.70;;;;;;;;;;5113788;28;24470;-59
2022/01/13 11:07:22;;;;;;;8.30;4.90;;;;;;;;;;5126295;28;24405;-59
2022/01/13 11:09:52;;;;;;;5.57;4.60;;;;;;;;;;5126538;28;24946;-59
2022/01/13 11:12:26;;;;;;;5.60;4.35;;;;;;;;;;5127158;27;24389;-59
2022/01/13 11:14:55;;;;;;;4.60;4.07;;;;;;;;;;5128726;27;24401;-60
2022/01/13 11:17:21;;;;;;;4.93;4.43;;;;;;;;;;5130550;27;24526;-58
2022/01/13 11:19:49;;;;;;;5.50;4.60;;;;;;;;;;5130651;27;24516;-58
2022/01/13 11:22:14;;;;;;;5.20;4.70;;;;;;;;;;5130610;27;24503;-59
2022/01/13 11:24:39;;;;;;;7.10;4.73;;;;;;;;;;5126556;27;24397;-59
2022/01/13 11:27:05;;;;;;;6.97;5.00;;;;;;;;;;5130054;27;24421;-59
2022/01/13 11:29:30;;;;;;;6.53;4.75;;;;;;;;;;5130437;27;24389;-58
2022/01/13 11:31:56;;;;;;;6.90;4.60;;;;;;;;;;5130125;27;25081;-59
2022/01/13 11:34:22;;;;;;;5.97;5.10;;;;;;;;;;5129969;27;24475;-59
2022/01/13 11:36:47;;;;;;;6.37;4.80;;;;;;;;;;5128012;27;25171;-60
2022/01/13 11:39:12;;;;;;;5.60;4.93;;;;;;;;;;5130330;27;24398;-59
2022/01/13 11:41:56;;;;;;;5.22;4.43;;;;;;;;;;5118178;27;24545;-59
2022/01/13 11:44:22;;;;;;;8.80;5.55;;;;;;;;;;5109282;28;25176;-59
2022/01/13 11:46:48;;;;;;;5.50;4.70;;;;;;;;;;5120400;27;24416;-59
2022/01/13 11:49:35;;;;;;;6.95;4.70;;;;;;;;;;5129894;27;24958;-59
2022/01/13 11:52:11;;;;;;;7.70;5.60;;;;;;;;;;5129994;27;24490;-59
2022/01/13 11:54:38;;;;;;;7.35;4.78;;;;;;;;;;5129865;27;24382;-59
2022/01/13 11:57:14;;;;;;;5.70;4.45;;;;;;;;;;5129606;27;24515;-59
2022/01/13 11:59:39;;;;;;;6.45;4.60;;;;;;;;;;5129785;27;24504;-59
2022/01/13 12:02:24;;;;;;;6.22;4.90;;;;;;;;;;5109282;28;24836;-60
2022/01/13 12:05:01;;;;;;;6.80;5.22;;;;;;;;;;5106898;28;24397;-60
2022/01/13 12:07:33;;;;;;;8.30;5.65;;;;;;;;;;5109142;28;24428;-60
2022/01/13 12:09:58;;;;;;;5.88;4.90;;;;;;;;;;5108775;28;24425;-59
2022/01/13 12:12:31;;;;;;;5.55;4.63;;;;;;;;;;5108856;28;24428;-60
2022/01/13 12:15:14;;;;;;;6.03;4.47;;;;;;;;;;5116941;27;24409;-59
2022/01/13 12:17:43;;;;;;;5.05;4.43;;;;;;;;;;5129197;27;24952;-59
2022/01/13 12:20:22;;;;;;;6.67;4.47;;;;;;;;;;5129219;27;24433;-59
2022/01/13 12:23:02;;;;;;;6.32;4.15;;;;;;;;;;5128755;27;24397;-59
2022/01/13 12:25:31;;;;;;;5.65;4.32;;;;;;;;;;5124761;27;24425;-60
2022/01/13 12:27:57;;;;;;;5.07;3.85;;;;;;;;;;5128609;27;25314;-60
2022/01/13 12:30:29;;;;;;;4.97;3.90;;;;;;;;;;5129428;27;24500;-60
2022/01/13 12:32:56;;;;;;;5.77;4.13;;;;;;;;;;5122314;27;24575;-60
2022/01/13 12:35:21;;;;;;;5.03;4.53;;;;;;;;;;5126198;27;24473;-59
2022/01/13 12:37:58;;;;;;;5.65;4.40;;;;;;;;;;5112590;27;24556;-60
2022/01/13 12:40:25;;;;;;;5.35;4.57;;;;;;;;;;5108218;28;24400;-59
2022/01/13 12:42:52;;;;;;;5.63;4.97;;;;;;;;;;5105618;28;24414;-59
2022/01/13 12:45:28;;;;;;;5.38;4.28;;;;;;;;;;5087649;28;24389;-59
2022/01/13 12:47:53;;;;;;;4.22;3.83;;;;;;;;;;5093423;28;24402;-59
2022/01/13 12:50:20;;;;;;;4.70;4.00;;;;;;;;;;5107846;28;24405;-59
2022/01/13 12:52:47;;;;;;;6.25;4.80;;;;;;;;;;5107225;28;21389;-60
2022/01/13 12:55:13;;;;;;;6.63;5.93;;;;;;;;;;5105938;27;24974;-60
2022/01/13 12:57:42;;;;;;;7.35;6.00;;;;;;;;;;5108108;28;24378;-59
2022/01/13 13:00:08;;;;;;;5.97;5.07;;;;;;;;;;5107991;28;24398;-59
2022/01/13 13:02:33;;;;;;;7.15;5.60;;;;;;;;;;5107454;28;24396;-60
2022/01/13 13:04:58;;;;;;;6.10;4.90;;;;;;;;;;5106706;28;24417;-60
2022/01/13 13:07:24;;;;;;;8.43;5.43;;;;;;;;;;5107695;28;24478;-60
2022/01/13 13:09:51;;;;;;;6.70;4.40;;;;;;;;;;5107320;28;24402;-60
2022/01/13 13:12:25;;;;;;;5.95;4.50;;;;;;;;;;5107847;28;24442;-59
2022/01/13 13:17:37;;;;;;;6.07;4.80;;;;;;;;;;5086932;28;24477;-60
2022/01/13 13:20:04;;;;;;;5.50;4.20;;;;;;;;;;5086983;28;24970;-59
2022/01/13 13:22:29;;;;;;;4.43;4.03;;;;;;;;;;5092305;28;24386;-59
2022/01/13 13:24:54;;;;;;;4.43;4.03;;;;;;;;;;5104836;28;24502;-60
2022/01/13 13:27:29;;;;;;;5.68;4.20;;;;;;;;;;5087056;28;24505;-60
2022/01/13 13:29:55;;;;;;;5.77;4.30;;;;;;;;;;5086833;28;24402;-60
2022/01/13 13:32:20;;;;;;;5.80;4.30;;;;;;;;;;5086855;28;24409;-60
2022/01/13 13:34:45;;;;;;;4.53;4.10;;;;;;;;;;5095753;28;24497;-60
2022/01/13 13:37:14;;;;;;;5.20;4.40;;;;;;;;;;5116208;27;24458;-60
2022/01/13 13:39:39;;;;;;;4.20;3.80;;;;;;;;;;5127815;27;24439;-60
2022/01/13 13:42:05;;;;;;;5.73;4.13;;;;;;;;;;5126316;27;24420;-60
2022/01/13 13:44:32;;;;;;;4.45;4.05;;;;;;;;;;5127801;27;24434;-60
2022/01/13 13:47:02;;;;;;;4.68;4.18;;;;;;;;;;5125467;27;24966;-60
2022/01/13 13:49:27;;;;;;;6.35;4.30;;;;;;;;;;5127201;27;24559;-60
2022/01/13 13:51:57;;;;;;;6.22;4.22;;;;;;;;;;5127110;27;24433;-60
2022/01/13 13:54:23;;;;;;;9.25;4.60;;;;;;;;;;5126816;27;24454;-60
2022/01/13 13:56:50;;;;;;;6.07;4.30;;;;;;;;;;5125138;27;24480;-60
2022/01/13 13:59:20;;;;;;;3.88;3.47;;;;;;;;;;5106533;28;24393;-60
2022/01/13 14:01:59;;;;;;;5.17;3.90;;;;;;;;;;5106793;28;24444;-60
2022/01/13 14:04:31;;;;;;;4.88;4.38;;;;;;;;;;5105979;28;24402;-61
2022/01/13 14:06:56;;;;;;;8.20;4.80;;;;;;;;;;5106517;28;24963;-60
2022/01/13 14:09:34;;;;;;;7.97;4.90;;;;;;;;;;5123760;27;24512;-61
2022/01/13 14:11:59;;;;;;;5.25;4.60;;;;;;;;;;5127243;27;25042;-60
2022/01/13 14:14:24;;;;;;;11.10;7.15;;;;;;;;;;5127240;27;24960;-61
2022/01/13 14:16:50;;;;;;;21.35;14.23;;;;;;;;;;5126138;27;24425;-60
2022/01/13 14:19:15;;;;;;;8.60;5.57;;;;;;;;;;5107332;28;24413;-60
2022/01/13 14:21:46;;;;;;;6.50;4.90;;;;;;;;;;5106675;28;24394;-60
2022/01/13 14:24:11;;;;;;;5.30;3.63;;;;;;;;;;5106421;28;24378;-61
2022/01/13 14:26:36;;;;;;;6.68;4.70;;;;;;;;;;5106552;28;24809;-61
2022/01/13 14:29:01;;;;;;;4.45;3.78;;;;;;;;;;5119577;28;24409;-60
2022/01/13 14:31:34;;;;;;;5.17;4.00;;;;;;;;;;5122599;28;24433;-60
2022/01/13 14:33:59;;;;;;;4.38;3.50;;;;;;;;;;5122808;28;24961;-60
2022/01/13 14:36:26;;;;;;;5.77;3.80;;;;;;;;;;5127072;28;24482;-60
2022/01/13 14:38:54;;;;;;;4.68;3.50;;;;;;;;;;5126982;28;24400;-59
2022/01/13 14:41:25;;;;;;;5.35;4.00;;;;;;;;;;5124647;28;24427;-60
2022/01/13 14:43:56;;;;;;;6.28;4.40;;;;;;;;;;5111219;28;24471;-58
2022/01/13 14:46:22;;;;;;;4.97;3.92;;;;;;;;;;5126285;27;24473;-58
2022/01/13 14:48:47;;;;;;;4.90;3.95;;;;;;;;;;5119262;27;25370;-58
2022/01/13 14:51:12;;;;;;;6.77;5.80;;;;;;;;;;5122062;27;24547;-58
2022/01/13 14:53:37;;;;;;;9.60;7.90;;;;;;;;;;5130184;27;24412;-59
2022/01/13 14:56:04;;;;;;;6.00;5.03;;;;;;;;;;5121029;27;24433;-60
2022/01/13 14:58:29;;;;;;;6.97;4.47;;;;;;;;;;5128381;27;24409;-60
2022/01/13 15:00:56;;;;;;;12.80;5.53;;;;;;;;;;5120485;27;24443;-60
2022/01/13 15:03:21;;;;;;;7.68;4.53;;;;;;;;;;5127328;27;24796;-59
2022/01/13 15:05:46;;;;;;;5.10;3.90;;;;;;;;;;5130176;27;24970;-59
2022/01/13 15:08:12;;;;;;;4.40;3.92;;;;;;;;;;5120790;27;24421;-59